createdAt,value
2022-08-27T00:01:23.904Z,18.05
2022-08-27T00:03:53.597Z,15.98
2022-08-27T00:06:21.567Z,16.42
2022-08-27T00:08:49.872Z,17.20
2022-08-27T00:11:19.035Z,12.95
2022-08-27T00:13:46.455Z,18.23
2022-08-27T00:16:15.695Z,16.85
2022-08-27T00:18:48.156Z,18.80
2022-08-27T00:21:17.834Z,18.75
2022-08-27T00:23:45.101Z,15.15
2022-08-27T00:26:13.445Z,14.73
2022-08-27T00:28:42.312Z,14.85
2022-08-27T00:31:11.332Z,14.82
2022-08-27T00:33:39.843Z,16.73
2022-08-27T00:36:07.311Z,15.55
2022-08-27T00:38:34.904Z,13.40
2022-08-27T00:41:01.864Z,18.88
2022-08-27T00:43:45.343Z,19.50
2022-08-27T00:46:19.420Z,17.90
2022-08-27T00:48:47.549Z,18.60
2022-08-27T00:51:14.984Z,20.15
2022-08-27T00:53:41.937Z,13.60
2022-08-27T00:56:13.000Z,17.85
2022-08-27T00:58:42.799Z,18.30
2022-08-27T01:01:13.135Z,16.10
2022-08-27T01:03:41.607Z,16.77
2022-08-27T01:06:16.159Z,15.95
2022-08-27T01:08:54.992Z,17.83
2022-08-27T01:11:22.367Z,16.13
2022-08-27T01:14:00.633Z,18.83
2022-08-27T01:16:36.944Z,15.05
2022-08-27T01:19:09.527Z,16.88
2022-08-27T01:21:46.133Z,15.75
2022-08-27T01:24:24.167Z,16.75
2022-08-27T01:26:51.811Z,16.90
2022-08-27T01:29:19.529Z,16.83
2022-08-27T01:31:46.497Z,13.75
2022-08-27T01:34:13.504Z,16.65
2022-08-27T01:36:40.637Z,15.57
2022-08-27T01:39:08.149Z,14.98
2022-08-27T01:41:35.910Z,15.38
2022-08-27T01:44:04.719Z,16.52
2022-08-27T01:46:31.642Z,14.68
2022-08-27T01:48:58.663Z,13.10
2022-08-27T01:51:25.844Z,18.65
2022-08-27T01:53:53.005Z,16.55
2022-08-27T01:56:19.979Z,15.57
2022-08-27T01:58:47.291Z,18.25
2022-08-27T02:01:18.431Z,15.93
2022-08-27T02:03:47.459Z,16.27
2022-08-27T02:06:14.865Z,14.98
2022-08-27T02:08:42.131Z,17.95
2022-08-27T02:11:10.103Z,16.05
2022-08-27T02:13:37.365Z,14.85
2022-08-27T02:16:05.387Z,12.55
2022-08-27T02:18:32.699Z,19.75
2022-08-27T02:20:59.982Z,16.00
2022-08-27T02:23:26.886Z,16.58
2022-08-27T02:25:54.055Z,18.92
2022-08-27T02:28:21.205Z,20.20
2022-08-27T02:30:48.111Z,15.10
2022-08-27T02:33:15.379Z,16.50
2022-08-27T02:35:44.503Z,19.80
2022-08-27T02:38:13.364Z,21.15
2022-08-27T02:40:40.705Z,21.48
2022-08-27T02:43:08.141Z,19.08
2022-08-27T02:45:36.889Z,16.95
2022-08-27T02:48:08.014Z,15.88
2022-08-27T02:50:35.598Z,18.20
2022-08-27T02:53:04.623Z,17.15
2022-08-27T02:55:31.977Z,18.13
2022-08-27T02:57:59.336Z,18.40
2022-08-27T03:00:28.745Z,16.58
2022-08-27T03:02:56.771Z,18.63
2022-08-27T03:05:24.381Z,21.15
2022-08-27T03:07:51.305Z,15.90
2022-08-27T03:10:20.111Z,16.65
2022-08-27T03:12:48.200Z,16.38
2022-08-27T03:15:17.611Z,19.33
2022-08-27T03:18:03.809Z,15.15
2022-08-27T03:20:31.687Z,13.57
2022-08-27T03:22:59.715Z,14.98
2022-08-27T03:25:26.721Z,16.45
2022-08-27T03:27:53.789Z,19.40
2022-08-27T03:30:22.371Z,20.02
2022-08-27T03:32:51.869Z,21.05
2022-08-27T03:35:20.701Z,16.83
2022-08-27T03:37:48.105Z,21.15
2022-08-27T03:40:16.031Z,18.10
2022-08-27T03:42:43.616Z,19.70
2022-08-27T03:45:11.767Z,18.77
2022-08-27T03:47:38.964Z,18.38
2022-08-27T03:50:07.248Z,25.05
2022-08-27T03:52:35.863Z,18.30
2022-08-27T03:55:04.807Z,22.48
2022-08-27T03:57:32.782Z,20.38
2022-08-27T04:00:01.516Z,17.30
2022-08-27T04:02:28.937Z,22.33
2022-08-27T04:04:57.861Z,23.52
2022-08-27T04:07:25.128Z,18.67
2022-08-27T04:09:52.156Z,16.48
2022-08-27T04:12:19.828Z,20.52
2022-08-27T04:14:47.039Z,18.83
2022-08-27T04:17:14.140Z,20.42
2022-08-27T04:19:41.244Z,19.95
2022-08-27T04:22:08.610Z,18.45
2022-08-27T04:24:38.055Z,17.77
2022-08-27T04:27:06.543Z,18.63
2022-08-27T04:29:33.578Z,20.33
2022-08-27T04:32:01.209Z,21.52
2022-08-27T04:34:29.035Z,20.48
2022-08-27T04:36:56.943Z,17.75
2022-08-27T04:39:24.899Z,18.63
2022-08-27T04:41:56.118Z,18.98
2022-08-27T04:44:24.438Z,23.08
2022-08-27T04:46:56.465Z,20.15
2022-08-27T04:49:24.726Z,19.60
2022-08-27T04:51:52.127Z,19.08
2022-08-27T04:54:19.357Z,23.52
2022-08-27T04:56:53.105Z,16.92
2022-08-27T04:59:20.087Z,24.77
2022-08-27T05:01:48.413Z,21.83
2022-08-27T05:04:18.944Z,24.75
2022-08-27T05:06:46.574Z,21.70
2022-08-27T05:09:14.713Z,16.85
2022-08-27T05:11:42.849Z,16.40
2022-08-27T05:14:13.743Z,23.52
2022-08-27T05:16:40.941Z,19.92
2022-08-27T05:19:11.269Z,19.38
2022-08-27T05:21:40.931Z,22.17
2022-08-27T05:24:08.105Z,20.45
2022-08-27T05:26:37.108Z,19.95
2022-08-27T05:29:06.245Z,20.55
2022-08-27T05:31:35.010Z,21.92
2022-08-27T05:34:03.759Z,22.88
2022-08-27T05:36:38.418Z,20.08
2022-08-27T05:39:17.239Z,19.83
2022-08-27T05:41:44.146Z,16.30
2022-08-27T05:44:39.678Z,19.95
2022-08-27T05:46:58.629Z,20.55
2022-08-27T05:49:26.023Z,17.65
2022-08-27T05:51:53.043Z,18.95
2022-08-27T05:54:20.336Z,18.20
2022-08-27T05:56:50.058Z,16.17
2022-08-27T05:59:36.620Z,21.63
2022-08-27T06:02:06.235Z,17.75
2022-08-27T06:04:33.868Z,18.55
2022-08-27T06:07:01.053Z,19.17
2022-08-27T06:09:29.590Z,19.38
2022-08-27T06:11:58.536Z,18.40
2022-08-27T06:14:26.573Z,17.27
2022-08-27T06:16:54.080Z,17.27
2022-08-27T06:19:21.511Z,18.30
2022-08-27T06:22:00.823Z,19.13
2022-08-27T06:24:36.588Z,17.27
2022-08-27T06:27:03.677Z,20.15
2022-08-27T06:29:30.726Z,16.95
2022-08-27T06:31:58.354Z,16.73
2022-08-27T06:34:25.374Z,19.45
2022-08-27T06:36:53.778Z,15.27
2022-08-27T06:39:21.376Z,20.58
2022-08-27T06:41:50.342Z,19.55
2022-08-27T06:44:21.582Z,20.52
2022-08-27T06:46:48.963Z,17.70
2022-08-27T06:49:16.441Z,23.58
2022-08-27T06:51:45.834Z,25.33
2022-08-27T06:54:14.574Z,14.38
2022-08-27T06:56:42.598Z,19.83
2022-08-27T06:59:15.099Z,16.30
2022-08-27T07:01:44.741Z,20.38
2022-08-27T07:04:17.434Z,23.15
2022-08-27T07:06:45.448Z,20.52
2022-08-27T07:09:12.461Z,24.60
2022-08-27T07:11:39.540Z,20.15
2022-08-27T07:14:08.298Z,22.30
2022-08-27T07:16:36.484Z,24.25
2022-08-27T07:19:05.821Z,16.27
2022-08-27T07:21:33.937Z,17.77
2022-08-27T07:24:05.080Z,20.30
2022-08-27T07:26:35.127Z,14.80
2022-08-27T07:29:04.454Z,18.95
2022-08-27T07:31:32.581Z,18.30
2022-08-27T07:33:59.439Z,22.80
2022-08-27T07:36:26.733Z,14.05
2022-08-27T07:39:00.705Z,18.70
2022-08-27T07:41:32.863Z,19.35
2022-08-27T07:44:19.273Z,19.23
2022-08-27T07:46:49.076Z,20.02
2022-08-27T07:49:18.574Z,15.93
2022-08-27T07:51:46.622Z,20.33
2022-08-27T07:54:15.062Z,17.95
2022-08-27T07:56:42.586Z,22.80
2022-08-27T07:59:21.814Z,17.85
2022-08-27T08:01:51.352Z,20.67
2022-08-27T08:04:20.434Z,16.77
2022-08-27T08:06:48.836Z,21.02
2022-08-27T08:09:15.773Z,17.15
2022-08-27T08:11:42.751Z,17.23
2022-08-27T08:14:09.834Z,21.63
2022-08-27T08:16:36.822Z,14.98
2022-08-27T08:19:03.855Z,24.30
2022-08-27T08:21:31.035Z,14.45
2022-08-27T08:23:58.282Z,15.02
2022-08-27T08:26:25.205Z,16.80
2022-08-27T08:28:52.396Z,16.23
2022-08-27T08:31:19.762Z,16.85
2022-08-27T08:33:48.744Z,15.52
2022-08-27T08:36:17.955Z,20.25
2022-08-27T08:38:46.273Z,14.85
2022-08-27T08:41:33.928Z,19.33
2022-08-27T08:44:05.818Z,14.88
2022-08-27T08:46:41.315Z,17.77
2022-08-27T08:49:30.343Z,12.73
2022-08-27T08:52:43.056Z,14.55
2022-08-27T08:55:43.866Z,17.00
2022-08-27T08:58:35.865Z,21.73
2022-08-27T09:01:06.316Z,15.45
2022-08-27T09:03:36.425Z,20.73
2022-08-27T09:06:10.570Z,17.05
2022-08-27T09:08:41.783Z,17.95
2022-08-27T09:14:40.590Z,20.05
2022-08-27T09:17:12.501Z,16.65
2022-08-27T09:19:39.726Z,16.27
2022-08-27T09:22:42.975Z,15.73
2022-08-27T09:25:36.007Z,16.13
2022-08-27T09:28:34.061Z,19.40
2022-08-27T09:31:10.018Z,18.40
2022-08-27T09:33:53.587Z,17.95
2022-08-27T09:36:24.698Z,13.02
2022-08-27T09:38:58.827Z,16.63
2022-08-27T09:41:31.988Z,22.08
2022-08-27T09:44:03.646Z,15.15
2022-08-27T09:46:31.349Z,18.60
2022-08-27T09:48:58.342Z,15.13
2022-08-27T09:51:29.711Z,17.45
2022-08-27T09:54:00.009Z,20.52
2022-08-27T09:56:31.441Z,16.17
2022-08-27T09:59:25.274Z,15.88
2022-08-27T10:01:55.590Z,15.65
2022-08-27T10:04:51.280Z,15.45
2022-08-27T10:07:22.517Z,17.52
2022-08-27T10:10:15.972Z,16.05
2022-08-27T10:12:58.569Z,16.95
2022-08-27T10:15:43.196Z,17.63
2022-08-27T10:18:24.828Z,20.15
2022-08-27T10:20:55.068Z,25.10
2022-08-27T10:23:33.529Z,16.80
2022-08-27T10:26:15.408Z,19.80
2022-08-27T10:28:52.626Z,17.40
2022-08-27T10:31:28.170Z,19.65
2022-08-27T10:34:07.293Z,20.30
2022-08-27T10:37:07.441Z,14.23
2022-08-27T10:40:08.121Z,18.40
2022-08-27T10:43:06.545Z,15.82
2022-08-27T10:45:46.225Z,14.93
2022-08-27T10:48:33.646Z,21.67
2022-08-27T10:51:18.962Z,18.27
2022-08-27T10:54:18.487Z,17.33
2022-08-27T10:57:26.115Z,20.73
2022-08-27T11:00:10.790Z,13.35
2022-08-27T11:02:42.193Z,12.45
2022-08-27T11:05:20.467Z,13.95
2022-08-27T11:07:53.612Z,16.10
2022-08-27T11:10:28.368Z,12.57
2022-08-27T11:13:00.070Z,15.43
2022-08-27T11:15:33.078Z,14.60
2022-08-27T11:18:06.034Z,14.00
2022-08-27T11:20:51.039Z,26.17
2022-08-27T11:23:24.252Z,14.57
2022-08-27T11:26:02.650Z,12.13
2022-08-27T11:28:45.184Z,13.48
2022-08-27T11:31:21.407Z,17.02
2022-08-27T11:34:02.614Z,20.05
2022-08-27T11:36:45.663Z,14.48
2022-08-27T11:39:34.846Z,16.23
2022-08-27T11:42:34.861Z,17.30
2022-08-27T11:45:16.775Z,18.67
2022-08-27T11:47:58.820Z,19.67
2022-08-27T11:50:28.785Z,23.77
2022-08-27T11:53:07.215Z,13.67
2022-08-27T11:55:38.027Z,16.60
2022-08-27T12:00:46.907Z,17.23
2022-08-27T12:03:20.297Z,15.98
2022-08-27T12:05:53.533Z,18.23
2022-08-27T12:08:29.730Z,19.77
2022-08-27T12:11:08.903Z,14.13
2022-08-27T12:13:52.935Z,17.65
2022-08-27T12:16:41.383Z,16.23
2022-08-27T12:19:34.490Z,16.17
2022-08-27T12:22:19.339Z,15.40
2022-08-27T12:24:59.076Z,16.20
2022-08-27T12:27:36.241Z,17.08
2022-08-27T12:30:21.968Z,18.27
2022-08-27T12:32:52.783Z,23.33
2022-08-27T12:35:27.152Z,19.20
2022-08-27T12:38:11.343Z,15.82
2022-08-27T12:40:47.326Z,17.20
2022-08-27T12:43:24.968Z,15.52
2022-08-27T12:45:58.419Z,16.83
2022-08-27T12:48:28.657Z,17.75
2022-08-27T12:50:59.799Z,18.15
2022-08-27T12:56:37.979Z,15.95
2022-08-27T12:59:50.033Z,14.57
2022-08-27T13:02:54.788Z,18.10
2022-08-27T13:05:24.031Z,14.55
2022-08-27T13:07:53.396Z,18.55
2022-08-27T13:10:31.513Z,19.55
2022-08-27T13:13:08.874Z,17.45
2022-08-27T13:15:36.641Z,18.25
2022-08-27T13:18:07.770Z,14.18
2022-08-27T13:20:38.235Z,17.30
2022-08-27T13:23:17.305Z,16.93
2022-08-27T13:26:08.735Z,21.35
2022-08-27T13:28:38.650Z,13.73
2022-08-27T13:31:07.839Z,17.27
2022-08-27T13:33:38.908Z,22.40
2022-08-27T13:36:07.036Z,21.25
2022-08-27T13:38:38.688Z,16.05
2022-08-27T13:41:10.540Z,19.60
2022-08-27T13:43:42.484Z,18.50
2022-08-27T13:46:13.899Z,15.45
2022-08-27T13:48:43.382Z,15.52
2022-08-27T13:51:13.286Z,24.17
2022-08-27T13:54:05.561Z,17.02
2022-08-27T13:56:36.472Z,11.82
2022-08-27T14:01:37.443Z,32.58
2022-08-27T14:04:08.934Z,15.32
2022-08-27T14:06:47.511Z,15.25
2022-08-27T14:09:27.900Z,15.65
2022-08-27T14:12:08.186Z,15.80
2022-08-27T14:14:42.258Z,10.93
2022-08-27T14:17:29.474Z,25.63
2022-08-27T14:20:01.385Z,19.52
2022-08-27T14:22:28.699Z,21.70
2022-08-27T14:24:55.903Z,17.77
2022-08-27T14:27:22.953Z,16.17
2022-08-27T14:29:50.252Z,16.33
2022-08-27T14:32:19.179Z,12.20
2022-08-27T14:34:46.760Z,13.40
2022-08-27T14:37:14.814Z,19.38
2022-08-27T14:39:43.525Z,28.20
2022-08-27T14:42:12.632Z,88.90
2022-08-27T14:44:40.333Z,236.20
2022-08-27T14:47:09.603Z,215.98
2022-08-27T14:49:41.584Z,60.35
2022-08-27T14:52:10.288Z,17.52
2022-08-27T14:54:37.630Z,19.42
2022-08-27T14:57:06.719Z,21.17
2022-08-27T14:59:34.670Z,21.70
2022-08-27T15:02:05.090Z,17.77
2022-08-27T15:04:32.460Z,12.45
2022-08-27T15:07:01.488Z,13.00
2022-08-27T15:09:31.602Z,15.80
2022-08-27T15:12:01.285Z,24.38
2022-08-27T15:14:34.982Z,16.83
2022-08-27T15:17:02.704Z,13.27
2022-08-27T15:19:50.007Z,13.35
2022-08-27T15:22:21.140Z,15.20
2022-08-27T15:27:17.527Z,11.25
2022-08-27T15:29:47.397Z,9.07
2022-08-27T15:32:21.781Z,11.85
2022-08-27T15:34:50.741Z,13.18
2022-08-27T15:37:19.187Z,16.85
2022-08-27T15:39:46.798Z,15.25
2022-08-27T15:42:14.380Z,13.27
2022-08-27T15:44:47.870Z,15.20
2022-08-27T15:47:19.324Z,12.80
2022-08-27T15:49:46.629Z,17.75
2022-08-27T15:52:17.418Z,14.50
2022-08-27T15:57:11.822Z,12.40
2022-08-27T15:59:38.832Z,15.05
2022-08-27T16:02:08.977Z,15.10
2022-08-27T16:04:35.795Z,11.55
2022-08-27T16:07:02.649Z,16.75
2022-08-27T16:09:29.673Z,12.75
2022-08-27T16:11:57.339Z,13.55
2022-08-27T16:14:24.277Z,18.88
2022-08-27T16:16:51.979Z,20.58
2022-08-27T16:19:20.650Z,13.07
2022-08-27T16:21:47.930Z,15.18
2022-08-27T16:24:17.311Z,18.42
2022-08-27T16:26:44.821Z,20.70
2022-08-27T16:29:12.147Z,14.52
2022-08-27T16:31:39.365Z,14.00
2022-08-27T16:34:15.442Z,15.07
2022-08-27T16:36:43.336Z,16.55
2022-08-27T16:39:11.295Z,13.75
2022-08-27T16:41:38.647Z,15.35
2022-08-27T16:44:06.839Z,14.30
2022-08-27T16:46:35.205Z,14.65
2022-08-27T16:49:21.013Z,18.05
2022-08-27T16:51:48.478Z,17.65
2022-08-27T16:54:16.915Z,16.67
2022-08-27T16:56:46.347Z,14.63
2022-08-27T16:59:15.922Z,18.52
2022-08-27T17:01:43.660Z,18.27
2022-08-27T17:04:20.316Z,10.82
2022-08-27T17:06:54.969Z,17.75
2022-08-27T17:09:23.915Z,20.17
2022-08-27T17:11:55.194Z,14.00
2022-08-27T17:14:22.865Z,10.05
2022-08-27T17:16:50.280Z,13.93
2022-08-27T17:19:18.790Z,20.38
2022-08-27T17:21:46.038Z,11.50
2022-08-27T17:24:13.485Z,18.77
2022-08-27T17:26:40.478Z,19.88
2022-08-27T17:29:07.656Z,15.73
2022-08-27T17:31:37.594Z,16.38
2022-08-27T17:34:06.467Z,7.57
2022-08-27T17:36:34.963Z,12.27
2022-08-27T17:39:03.082Z,12.93
2022-08-27T17:41:36.911Z,12.85
2022-08-27T17:44:09.615Z,11.45
2022-08-27T17:46:36.923Z,12.82
2022-08-27T17:49:04.898Z,14.43
2022-08-27T17:51:32.111Z,16.92
2022-08-27T17:54:01.103Z,13.57
2022-08-27T17:56:29.642Z,17.88
2022-08-27T17:58:57.336Z,11.48
2022-08-27T18:01:32.168Z,13.52
2022-08-27T18:03:59.800Z,16.48
2022-08-27T18:06:27.746Z,20.40
2022-08-27T18:08:55.127Z,16.58
2022-08-27T18:11:23.388Z,12.52
2022-08-27T18:13:54.112Z,18.60
2022-08-27T18:18:50.524Z,19.38
2022-08-27T18:21:25.174Z,19.88
2022-08-27T18:23:54.431Z,23.30
2022-08-27T18:26:25.752Z,17.33
2022-08-27T18:31:29.026Z,16.45
2022-08-27T18:33:58.740Z,9.40
2022-08-27T18:36:27.238Z,9.15
2022-08-27T18:38:55.011Z,20.92
2022-08-27T18:41:28.530Z,11.57
2022-08-27T18:43:56.218Z,13.70
2022-08-27T18:46:23.060Z,13.80
2022-08-27T18:48:51.647Z,15.02
2022-08-27T18:51:21.000Z,15.88
2022-08-27T18:53:49.561Z,12.20
2022-08-27T18:56:20.720Z,14.27
2022-08-27T18:58:48.571Z,12.48
2022-08-27T19:01:20.089Z,10.60
2022-08-27T19:03:50.058Z,12.63
2022-08-27T19:06:20.445Z,21.63
2022-08-27T19:08:49.370Z,13.98
2022-08-27T19:11:16.729Z,8.55
2022-08-27T19:13:43.997Z,14.43
2022-08-27T19:16:32.002Z,20.60
2022-08-27T19:18:59.183Z,14.77
2022-08-27T19:21:27.027Z,11.20
2022-08-27T19:23:54.120Z,10.65
2022-08-27T19:26:23.564Z,16.50
2022-08-27T19:28:50.769Z,10.55
2022-08-27T19:31:17.805Z,10.65
2022-08-27T19:33:45.199Z,15.68
2022-08-27T19:36:15.865Z,13.15
2022-08-27T19:38:44.492Z,11.75
2022-08-27T19:41:12.371Z,15.55
2022-08-27T19:43:39.298Z,13.90
2022-08-27T19:46:13.158Z,15.85
2022-08-27T19:48:40.322Z,15.43
2022-08-27T19:51:07.269Z,14.57
2022-08-27T19:53:35.470Z,17.10
2022-08-27T19:56:03.540Z,12.40
2022-08-27T19:58:31.024Z,14.85
2022-08-27T20:00:57.999Z,17.40
2022-08-27T20:03:25.381Z,19.17
2022-08-27T20:05:53.015Z,13.25
2022-08-27T20:08:19.913Z,14.77
2022-08-27T20:10:47.151Z,14.75
2022-08-27T20:13:14.264Z,12.30
2022-08-27T20:15:41.395Z,25.42
2022-08-27T20:18:10.048Z,13.82
2022-08-27T20:20:37.630Z,19.50
2022-08-27T20:23:05.247Z,14.48
2022-08-27T20:25:34.248Z,14.07
2022-08-27T20:28:16.399Z,17.10
2022-08-27T20:30:49.040Z,14.50
2022-08-27T20:33:16.741Z,12.95
2022-08-27T20:35:44.885Z,12.77
2022-08-27T20:38:12.268Z,13.23
2022-08-27T20:40:39.339Z,12.20
2022-08-27T20:43:06.207Z,16.13
2022-08-27T20:45:33.499Z,11.13
2022-08-27T20:48:00.965Z,16.25
2022-08-27T20:50:31.341Z,17.33
2022-08-27T20:52:58.755Z,13.38
2022-08-27T20:55:26.001Z,13.85
2022-08-27T20:58:11.346Z,13.75
2022-08-27T21:00:41.011Z,20.63
2022-08-27T21:03:10.309Z,26.73
2022-08-27T21:05:37.579Z,14.35
2022-08-27T21:08:06.361Z,14.05
2022-08-27T21:10:34.281Z,11.80
2022-08-27T21:13:04.489Z,13.30
2022-08-27T21:15:32.633Z,15.85
2022-08-27T21:17:59.648Z,18.48
2022-08-27T21:20:26.581Z,21.80
2022-08-27T21:22:56.041Z,14.70
2022-08-27T21:25:25.202Z,12.32
2022-08-27T21:27:53.157Z,11.90
2022-08-27T21:30:21.512Z,15.20
2022-08-27T21:32:49.062Z,9.55
2022-08-27T21:35:16.383Z,13.85
2022-08-27T21:37:43.796Z,15.02
2022-08-27T21:40:11.173Z,15.27
2022-08-27T21:42:38.306Z,13.57
2022-08-27T21:45:06.176Z,15.77
2022-08-27T21:47:33.130Z,14.07
2022-08-27T21:50:00.220Z,14.43
2022-08-27T21:52:27.477Z,13.27
2022-08-27T21:54:54.397Z,17.50
2022-08-27T21:57:21.339Z,13.65
2022-08-27T21:59:50.360Z,14.82
2022-08-27T22:05:07.996Z,16.77
2022-08-27T22:07:35.110Z,14.18
2022-08-27T22:10:02.616Z,18.38
2022-08-27T22:12:32.515Z,11.70
2022-08-27T22:17:28.660Z,12.50
2022-08-27T22:19:58.263Z,12.70
2022-08-27T22:22:30.756Z,13.15
2022-08-27T22:24:59.499Z,13.90
2022-08-27T22:27:26.922Z,17.63
2022-08-27T22:29:54.817Z,18.60
2022-08-27T22:32:22.697Z,15.40
2022-08-27T22:34:49.771Z,13.52
2022-08-27T22:37:18.754Z,18.58
2022-08-27T22:39:48.596Z,15.57
2022-08-27T22:42:17.821Z,17.73
2022-08-27T22:44:47.023Z,16.58
2022-08-27T22:47:16.492Z,19.95
2022-08-27T22:49:44.506Z,15.18
2022-08-27T22:52:12.975Z,14.75
2022-08-27T22:54:41.099Z,17.10
2022-08-27T22:57:10.554Z,12.20
2022-08-27T22:59:39.135Z,12.40
2022-08-27T23:02:09.444Z,14.82
2022-08-27T23:04:53.976Z,14.52
2022-08-27T23:07:22.785Z,14.65
2022-08-27T23:09:52.808Z,15.65
2022-08-27T23:12:20.535Z,13.43
2022-08-27T23:14:47.883Z,15.40
2022-08-27T23:17:18.651Z,18.23
2022-08-27T23:19:50.034Z,15.70
2022-08-27T23:22:19.896Z,13.95
2022-08-27T23:25:08.086Z,15.30
2022-08-27T23:27:35.585Z,16.80
2022-08-27T23:30:04.468Z,21.77
2022-08-27T23:32:33.989Z,11.70
2022-08-27T23:35:02.454Z,13.32
2022-08-27T23:37:30.512Z,13.80
2022-08-27T23:39:58.161Z,12.48
2022-08-27T23:42:25.475Z,11.00
2022-08-27T23:44:52.657Z,12.10
2022-08-27T23:47:20.406Z,13.52
2022-08-27T23:49:48.600Z,18.23
2022-08-27T23:52:17.150Z,11.63
2022-08-27T23:54:44.994Z,15.32
2022-08-27T23:57:12.070Z,14.38
2022-08-27T23:59:39.144Z,13.65
